sensor_id;sensor_type;location;lat;lon;timestamp;pressure;altitude;pressure_sealevel;temperature;humidity
33414;BME280;60055;41.884;12.534;2023-05-20T00:00:30;100483.97;;;17.34;79.28
33414;BME280;60055;41.884;12.534;2023-05-20T00:02:55;100479.94;;;17.42;79.60
33414;BME280;60055;41.884;12.534;2023-05-20T00:05:22;100472.28;;;17.50;79.22
33414;BME280;60055;41.884;12.534;2023-05-20T00:07:47;100475.41;;;17.56;78.68
33414;BME280;60055;41.884;12.534;2023-05-20T00:10:13;100477.94;;;17.58;78.67
33414;BME280;60055;41.884;12.534;2023-05-20T00:12:39;100490.69;;;17.67;78.46
33414;BME280;60055;41.884;12.534;2023-05-20T00:15:05;100471.50;;;17.48;79.12
33414;BME280;60055;41.884;12.534;2023-05-20T00:17:30;100476.75;;;17.36;79.77
33414;BME280;60055;41.884;12.534;2023-05-20T00:19:56;100471.28;;;17.38;79.60
33414;BME280;60055;41.884;12.534;2023-05-20T00:22:21;100481.44;;;17.46;79.41
33414;BME280;60055;41.884;12.534;2023-05-20T00:24:53;100478.34;;;17.52;79.26
33414;BME280;60055;41.884;12.534;2023-05-20T00:27:19;100479.41;;;17.49;79.42
33414;BME280;60055;41.884;12.534;2023-05-20T00:29:44;100475.78;;;17.50;79.21
33414;BME280;60055;41.884;12.534;2023-05-20T00:32:10;100465.75;;;17.54;78.81
33414;BME280;60055;41.884;12.534;2023-05-20T00:34:36;100454.44;;;17.50;79.62
33414;BME280;60055;41.884;12.534;2023-05-20T00:37:01;100455.19;;;17.52;79.38
33414;BME280;60055;41.884;12.534;2023-05-20T00:39:27;100448.97;;;17.52;79.40
33414;BME280;60055;41.884;12.534;2023-05-20T00:41:54;100434.13;;;17.48;79.71
33414;BME280;60055;41.884;12.534;2023-05-20T00:44:21;100415.34;;;17.36;79.75
33414;BME280;60055;41.884;12.534;2023-05-20T00:46:49;100418.31;;;17.45;79.57
33414;BME280;60055;41.884;12.534;2023-05-20T00:49:14;100405.75;;;17.47;78.81
33414;BME280;60055;41.884;12.534;2023-05-20T00:51:43;100404.56;;;17.38;79.02
33414;BME280;60055;41.884;12.534;2023-05-20T00:54:11;100393.78;;;17.40;78.09
33414;BME280;60055;41.884;12.534;2023-05-20T00:56:37;100379.25;;;17.44;77.94
33414;BME280;60055;41.884;12.534;2023-05-20T00:59:03;100377.34;;;17.46;77.86
33414;BME280;60055;41.884;12.534;2023-05-20T01:01:29;100366.75;;;17.44;76.95
33414;BME280;60055;41.884;12.534;2023-05-20T01:03:55;100364.28;;;17.41;76.29
33414;BME280;60055;41.884;12.534;2023-05-20T01:06:20;100353.41;;;17.44;76.67
33414;BME280;60055;41.884;12.534;2023-05-20T01:08:46;100347.88;;;17.47;76.08
33414;BME280;60055;41.884;12.534;2023-05-20T01:11:25;100350.19;;;17.52;76.29
33414;BME280;60055;41.884;12.534;2023-05-20T01:13:58;100336.13;;;17.50;76.29
33414;BME280;60055;41.884;12.534;2023-05-20T01:16:26;100335.50;;;17.59;75.77
33414;BME280;60055;41.884;12.534;2023-05-20T01:18:55;100328.84;;;17.52;76.14
33414;BME280;60055;41.884;12.534;2023-05-20T01:21:22;100330.78;;;17.50;75.08
33414;BME280;60055;41.884;12.534;2023-05-20T01:23:47;100328.75;;;17.53;74.95
33414;BME280;60055;41.884;12.534;2023-05-20T01:26:13;100328.22;;;17.61;74.33
33414;BME280;60055;41.884;12.534;2023-05-20T01:28:40;100313.28;;;17.58;73.77
33414;BME280;60055;41.884;12.534;2023-05-20T01:31:15;100319.69;;;17.56;73.36
33414;BME280;60055;41.884;12.534;2023-05-20T01:33:43;100299.69;;;17.61;71.87
33414;BME280;60055;41.884;12.534;2023-05-20T01:36:10;100305.91;;;17.62;72.35
33414;BME280;60055;41.884;12.534;2023-05-20T01:38:36;100305.69;;;17.65;72.71
33414;BME280;60055;41.884;12.534;2023-05-20T01:41:05;100300.47;;;17.63;74.37
33414;BME280;60055;41.884;12.534;2023-05-20T01:43:31;100301.91;;;17.55;75.63
33414;BME280;60055;41.884;12.534;2023-05-20T01:45:57;100316.25;;;17.54;76.04
33414;BME280;60055;41.884;12.534;2023-05-20T01:48:22;100319.25;;;17.62;75.87
33414;BME280;60055;41.884;12.534;2023-05-20T01:50:48;100320.53;;;17.69;75.69
33414;BME280;60055;41.884;12.534;2023-05-20T01:53:13;100325.84;;;17.69;75.43
33414;BME280;60055;41.884;12.534;2023-05-20T01:55:39;100335.69;;;17.68;75.50
33414;BME280;60055;41.884;12.534;2023-05-20T01:58:04;100344.03;;;17.64;75.72
33414;BME280;60055;41.884;12.534;2023-05-20T02:00:31;100349.91;;;17.69;75.79
33414;BME280;60055;41.884;12.534;2023-05-20T02:02:58;100358.84;;;17.68;75.02
33414;BME280;60055;41.884;12.534;2023-05-20T02:05:23;100354.72;;;17.64;72.07
33414;BME280;60055;41.884;12.534;2023-05-20T02:07:48;100363.47;;;17.66;71.21
33414;BME280;60055;41.884;12.534;2023-05-20T02:10:14;100372.44;;;17.65;70.97
33414;BME280;60055;41.884;12.534;2023-05-20T02:12:39;100377.13;;;17.61;70.71
33414;BME280;60055;41.884;12.534;2023-05-20T02:15:05;100369.25;;;17.60;70.76
33414;BME280;60055;41.884;12.534;2023-05-20T02:17:31;100382.00;;;17.55;70.62
33414;BME280;60055;41.884;12.534;2023-05-20T02:19:56;100381.38;;;17.51;70.82
33414;BME280;60055;41.884;12.534;2023-05-20T02:22:22;100380.44;;;17.52;70.83
33414;BME280;60055;41.884;12.534;2023-05-20T02:24:48;100379.34;;;17.55;70.12
33414;BME280;60055;41.884;12.534;2023-05-20T02:27:13;100379.47;;;17.53;70.30
33414;BME280;60055;41.884;12.534;2023-05-20T02:29:39;100374.88;;;17.55;70.51
33414;BME280;60055;41.884;12.534;2023-05-20T02:32:04;100375.00;;;17.54;70.09
33414;BME280;60055;41.884;12.534;2023-05-20T02:34:31;100375.81;;;17.54;70.59
33414;BME280;60055;41.884;12.534;2023-05-20T02:36:57;100371.78;;;17.49;71.46
33414;BME280;60055;41.884;12.534;2023-05-20T02:39:22;100386.00;;;17.36;72.09
33414;BME280;60055;41.884;12.534;2023-05-20T02:41:48;100390.47;;;17.36;72.97
33414;BME280;60055;41.884;12.534;2023-05-20T02:44:13;100398.03;;;17.29;73.39
33414;BME280;60055;41.884;12.534;2023-05-20T02:46:39;100402.81;;;17.24;73.90
33414;BME280;60055;41.884;12.534;2023-05-20T02:49:05;100396.44;;;17.27;73.99
33414;BME280;60055;41.884;12.534;2023-05-20T02:51:31;100395.16;;;17.32;74.35
33414;BME280;60055;41.884;12.534;2023-05-20T02:53:57;100396.75;;;17.22;73.99
33414;BME280;60055;41.884;12.534;2023-05-20T02:56:23;100393.97;;;17.11;74.31
33414;BME280;60055;41.884;12.534;2023-05-20T02:58:49;100379.16;;;17.20;74.65
33414;BME280;60055;41.884;12.534;2023-05-20T03:01:15;100367.50;;;17.21;75.35
33414;BME280;60055;41.884;12.534;2023-05-20T03:03:41;100361.81;;;17.00;74.76
33414;BME280;60055;41.884;12.534;2023-05-20T03:06:07;100346.38;;;17.05;75.33
33414;BME280;60055;41.884;12.534;2023-05-20T03:08:32;100344.44;;;17.07;75.20
33414;BME280;60055;41.884;12.534;2023-05-20T03:10:59;100344.66;;;17.04;75.49
33414;BME280;60055;41.884;12.534;2023-05-20T03:13:25;100346.66;;;17.01;75.26
33414;BME280;60055;41.884;12.534;2023-05-20T03:15:50;100342.19;;;17.01;75.11
33414;BME280;60055;41.884;12.534;2023-05-20T03:18:16;100339.94;;;16.95;75.62
33414;BME280;60055;41.884;12.534;2023-05-20T03:20:41;100336.13;;;16.99;74.73
33414;BME280;60055;41.884;12.534;2023-05-20T03:23:08;100329.94;;;16.99;75.37
33414;BME280;60055;41.884;12.534;2023-05-20T03:25:33;100332.03;;;16.94;75.02
33414;BME280;60055;41.884;12.534;2023-05-20T03:27:59;100334.63;;;16.95;75.16
33414;BME280;60055;41.884;12.534;2023-05-20T03:30:25;100337.28;;;16.95;74.75
33414;BME280;60055;41.884;12.534;2023-05-20T03:32:52;100336.00;;;17.01;74.58
33414;BME280;60055;41.884;12.534;2023-05-20T03:35:18;100328.13;;;16.99;74.82
33414;BME280;60055;41.884;12.534;2023-05-20T03:37:43;100334.41;;;16.98;74.77
33414;BME280;60055;41.884;12.534;2023-05-20T03:40:09;100343.13;;;17.00;74.46
33414;BME280;60055;41.884;12.534;2023-05-20T03:42:36;100337.63;;;17.03;74.85
33414;BME280;60055;41.884;12.534;2023-05-20T03:45:07;100335.03;;;17.02;75.25
33414;BME280;60055;41.884;12.534;2023-05-20T03:47:33;100331.00;;;16.96;76.15
33414;BME280;60055;41.884;12.534;2023-05-20T03:49:58;100341.13;;;16.91;77.02
33414;BME280;60055;41.884;12.534;2023-05-20T03:52:24;100335.78;;;16.91;77.17
33414;BME280;60055;41.884;12.534;2023-05-20T03:54:49;100336.63;;;16.92;77.08
33414;BME280;60055;41.884;12.534;2023-05-20T03:57:15;100340.16;;;16.92;77.18
33414;BME280;60055;41.884;12.534;2023-05-20T03:59:40;100345.06;;;16.85;76.42
33414;BME280;60055;41.884;12.534;2023-05-20T04:02:07;100338.22;;;16.94;77.02
33414;BME280;60055;41.884;12.534;2023-05-20T04:04:33;100342.28;;;16.87;77.29
33414;BME280;60055;41.884;12.534;2023-05-20T04:06:58;100335.63;;;16.80;78.29
33414;BME280;60055;41.884;12.534;2023-05-20T04:09:32;100340.97;;;16.80;78.27
33414;BME280;60055;41.884;12.534;2023-05-20T04:11:57;100341.59;;;16.71;78.61
33414;BME280;60055;41.884;12.534;2023-05-20T04:14:22;100334.03;;;16.65;79.62
33414;BME280;60055;41.884;12.534;2023-05-20T04:16:48;100333.41;;;16.74;79.67
33414;BME280;60055;41.884;12.534;2023-05-20T04:19:14;100322.72;;;16.61;79.68
33414;BME280;60055;41.884;12.534;2023-05-20T04:21:41;100332.00;;;16.56;80.31
33414;BME280;60055;41.884;12.534;2023-05-20T04:24:07;100327.09;;;16.62;80.24
33414;BME280;60055;41.884;12.534;2023-05-20T04:26:32;100333.25;;;16.63;80.14
33414;BME280;60055;41.884;12.534;2023-05-20T04:29:00;100325.31;;;16.49;80.35
33414;BME280;60055;41.884;12.534;2023-05-20T04:31:28;100319.00;;;16.50;80.88
33414;BME280;60055;41.884;12.534;2023-05-20T04:33:55;100315.00;;;16.57;80.48
33414;BME280;60055;41.884;12.534;2023-05-20T04:36:20;100315.78;;;16.59;80.84
33414;BME280;60055;41.884;12.534;2023-05-20T04:38:46;100320.69;;;16.65;80.37
33414;BME280;60055;41.884;12.534;2023-05-20T04:41:12;100318.25;;;16.62;80.51
33414;BME280;60055;41.884;12.534;2023-05-20T04:43:38;100310.66;;;16.56;80.24
33414;BME280;60055;41.884;12.534;2023-05-20T04:46:04;100310.53;;;16.57;80.25
33414;BME280;60055;41.884;12.534;2023-05-20T04:48:33;100313.00;;;16.60;80.56
33414;BME280;60055;41.884;12.534;2023-05-20T04:50:58;100304.25;;;16.58;80.11
33414;BME280;60055;41.884;12.534;2023-05-20T04:53:24;100305.78;;;16.62;80.24
33414;BME280;60055;41.884;12.534;2023-05-20T04:55:53;100300.22;;;16.65;79.65
33414;BME280;60055;41.884;12.534;2023-05-20T04:58:19;100300.22;;;16.65;80.01
33414;BME280;60055;41.884;12.534;2023-05-20T05:00:48;100306.00;;;16.72;79.28
33414;BME280;60055;41.884;12.534;2023-05-20T05:03:14;100301.84;;;16.80;78.99
33414;BME280;60055;41.884;12.534;2023-05-20T05:05:39;100300.31;;;16.76;79.15
33414;BME280;60055;41.884;12.534;2023-05-20T05:08:07;100300.66;;;16.84;78.93
33414;BME280;60055;41.884;12.534;2023-05-20T05:10:33;100296.41;;;16.82;78.69
33414;BME280;60055;41.884;12.534;2023-05-20T05:13:00;100283.81;;;16.84;78.90
33414;BME280;60055;41.884;12.534;2023-05-20T05:15:26;100283.06;;;16.82;77.90
33414;BME280;60055;41.884;12.534;2023-05-20T05:17:51;100283.38;;;16.77;77.70
33414;BME280;60055;41.884;12.534;2023-05-20T05:20:17;100270.25;;;16.87;78.09
33414;BME280;60055;41.884;12.534;2023-05-20T05:22:43;100278.38;;;16.85;77.35
33414;BME280;60055;41.884;12.534;2023-05-20T05:25:10;100276.38;;;16.89;76.19
33414;BME280;60055;41.884;12.534;2023-05-20T05:27:36;100285.88;;;16.93;76.03
33414;BME280;60055;41.884;12.534;2023-05-20T05:30:05;100287.03;;;17.02;76.24
33414;BME280;60055;41.884;12.534;2023-05-20T05:32:31;100283.28;;;17.04;74.88
33414;BME280;60055;41.884;12.534;2023-05-20T05:34:57;100285.97;;;17.04;74.42
33414;BME280;60055;41.884;12.534;2023-05-20T05:37:23;100273.69;;;17.14;74.16
33414;BME280;60055;41.884;12.534;2023-05-20T05:39:49;100282.31;;;17.18;73.78
33414;BME280;60055;41.884;12.534;2023-05-20T05:42:15;100287.78;;;17.16;73.03
33414;BME280;60055;41.884;12.534;2023-05-20T05:44:40;100288.72;;;17.28;73.14
33414;BME280;60055;41.884;12.534;2023-05-20T05:47:06;100288.84;;;17.26;72.31
33414;BME280;60055;41.884;12.534;2023-05-20T05:49:35;100288.28;;;17.34;71.63
33414;BME280;60055;41.884;12.534;2023-05-20T05:52:00;100283.06;;;17.32;72.14
33414;BME280;60055;41.884;12.534;2023-05-20T05:54:26;100264.16;;;17.35;71.86
33414;BME280;60055;41.884;12.534;2023-05-20T05:56:52;100276.66;;;17.35;71.57
33414;BME280;60055;41.884;12.534;2023-05-20T05:59:18;100272.69;;;17.41;71.46
33414;BME280;60055;41.884;12.534;2023-05-20T06:01:51;100273.88;;;17.36;70.33
33414;BME280;60055;41.884;12.534;2023-05-20T06:04:17;100270.13;;;17.39;70.54
33414;BME280;60055;41.884;12.534;2023-05-20T06:06:43;100267.25;;;17.42;70.19
33414;BME280;60055;41.884;12.534;2023-05-20T06:09:08;100266.94;;;17.47;70.22
33414;BME280;60055;41.884;12.534;2023-05-20T06:11:34;100265.75;;;17.38;69.51
33414;BME280;60055;41.884;12.534;2023-05-20T06:14:00;100255.00;;;17.40;69.22
33414;BME280;60055;41.884;12.534;2023-05-20T06:16:26;100253.03;;;17.42;69.61
33414;BME280;60055;41.884;12.534;2023-05-20T06:18:51;100252.94;;;17.43;69.30
33414;BME280;60055;41.884;12.534;2023-05-20T06:21:21;100250.38;;;17.42;69.03
33414;BME280;60055;41.884;12.534;2023-05-20T06:23:48;100263.09;;;17.38;69.44
33414;BME280;60055;41.884;12.534;2023-05-20T06:26:13;100259.34;;;17.41;69.41
33414;BME280;60055;41.884;12.534;2023-05-20T06:28:39;100268.19;;;17.41;69.38
33414;BME280;60055;41.884;12.534;2023-05-20T06:31:04;100270.78;;;17.43;69.95
33414;BME280;60055;41.884;12.534;2023-05-20T06:33:30;100268.97;;;17.43;69.14
33414;BME280;60055;41.884;12.534;2023-05-20T06:35:57;100268.09;;;17.43;68.84
33414;BME280;60055;41.884;12.534;2023-05-20T06:38:22;100271.28;;;17.48;68.35
33414;BME280;60055;41.884;12.534;2023-05-20T06:40:48;100290.97;;;17.47;68.93
33414;BME280;60055;41.884;12.534;2023-05-20T06:43:16;100287.09;;;17.51;69.00
33414;BME280;60055;41.884;12.534;2023-05-20T06:45:42;100292.63;;;17.48;69.03
33414;BME280;60055;41.884;12.534;2023-05-20T06:48:08;100285.41;;;17.50;68.92
33414;BME280;60055;41.884;12.534;2023-05-20T06:50:34;100270.34;;;17.49;69.34
33414;BME280;60055;41.884;12.534;2023-05-20T06:52:59;100267.44;;;17.52;69.51
33414;BME280;60055;41.884;12.534;2023-05-20T06:55:25;100257.22;;;17.46;70.36
33414;BME280;60055;41.884;12.534;2023-05-20T06:57:51;100248.13;;;17.48;70.05
33414;BME280;60055;41.884;12.534;2023-05-20T07:00:17;100237.66;;;17.45;70.31
33414;BME280;60055;41.884;12.534;2023-05-20T07:02:42;100213.00;;;17.42;69.56
33414;BME280;60055;41.884;12.534;2023-05-20T07:05:08;100190.94;;;17.40;70.22
33414;BME280;60055;41.884;12.534;2023-05-20T07:07:34;100174.50;;;17.33;71.35
33414;BME280;60055;41.884;12.534;2023-05-20T07:09:59;100175.13;;;17.36;72.27
33414;BME280;60055;41.884;12.534;2023-05-20T07:12:25;100177.81;;;17.36;73.23
33414;BME280;60055;41.884;12.534;2023-05-20T07:14:50;100170.13;;;17.32;74.17
33414;BME280;60055;41.884;12.534;2023-05-20T07:17:15;100177.00;;;17.23;75.67
33414;BME280;60055;41.884;12.534;2023-05-20T07:19:41;100182.50;;;17.33;76.17
33414;BME280;60055;41.884;12.534;2023-05-20T07:22:07;100183.56;;;17.30;75.54
33414;BME280;60055;41.884;12.534;2023-05-20T07:24:32;100191.38;;;17.21;75.93
33414;BME280;60055;41.884;12.534;2023-05-20T07:26:58;100181.75;;;17.31;76.49
33414;BME280;60055;41.884;12.534;2023-05-20T07:29:24;100171.63;;;17.36;76.79
33414;BME280;60055;41.884;12.534;2023-05-20T07:31:59;100147.41;;;17.26;77.11
33414;BME280;60055;41.884;12.534;2023-05-20T07:34:25;100097.91;;;17.22;77.72
33414;BME280;60055;41.884;12.534;2023-05-20T07:36:51;100069.81;;;17.17;78.11
33414;BME280;60055;41.884;12.534;2023-05-20T07:39:18;100062.28;;;17.11;79.26
33414;BME280;60055;41.884;12.534;2023-05-20T07:41:46;100092.50;;;17.35;78.33
33414;BME280;60055;41.884;12.534;2023-05-20T07:44:12;100119.31;;;17.33;77.71
33414;BME280;60055;41.884;12.534;2023-05-20T07:46:38;100146.06;;;17.45;78.13
33414;BME280;60055;41.884;12.534;2023-05-20T07:49:04;100153.84;;;17.60;77.19
33414;BME280;60055;41.884;12.534;2023-05-20T07:51:29;100160.06;;;17.72;76.66
33414;BME280;60055;41.884;12.534;2023-05-20T07:53:56;100160.75;;;17.63;76.81
33414;BME280;60055;41.884;12.534;2023-05-20T07:56:21;100162.00;;;17.70;77.01
33414;BME280;60055;41.884;12.534;2023-05-20T07:58:57;100174.34;;;17.83;76.95
33414;BME280;60055;41.884;12.534;2023-05-20T08:01:23;100168.69;;;17.75;77.31
33414;BME280;60055;41.884;12.534;2023-05-20T08:03:49;100172.28;;;17.87;76.82
33414;BME280;60055;41.884;12.534;2023-05-20T08:06:15;100180.84;;;18.03;76.73
33414;BME280;60055;41.884;12.534;2023-05-20T08:08:41;100193.16;;;18.17;76.49
33414;BME280;60055;41.884;12.534;2023-05-20T08:11:08;100199.59;;;18.14;75.89
33414;BME280;60055;41.884;12.534;2023-05-20T08:13:34;100181.25;;;18.10;76.31
33414;BME280;60055;41.884;12.534;2023-05-20T08:16:00;100170.28;;;18.02;75.87
33414;BME280;60055;41.884;12.534;2023-05-20T08:18:25;100178.06;;;18.05;75.17
33414;BME280;60055;41.884;12.534;2023-05-20T08:20:52;100182.19;;;17.98;74.54
33414;BME280;60055;41.884;12.534;2023-05-20T08:23:17;100179.66;;;18.07;75.66
33414;BME280;60055;41.884;12.534;2023-05-20T08:25:46;100178.66;;;18.08;74.40
33414;BME280;60055;41.884;12.534;2023-05-20T08:28:12;100187.22;;;18.13;74.56
33414;BME280;60055;41.884;12.534;2023-05-20T08:30:38;100185.78;;;18.20;74.75
33414;BME280;60055;41.884;12.534;2023-05-20T08:33:04;100189.56;;;18.29;73.53
33414;BME280;60055;41.884;12.534;2023-05-20T08:35:30;100178.13;;;18.27;71.67
33414;BME280;60055;41.884;12.534;2023-05-20T08:37:58;100183.25;;;18.30;70.97
33414;BME280;60055;41.884;12.534;2023-05-20T08:40:36;100180.47;;;18.31;69.18
33414;BME280;60055;41.884;12.534;2023-05-20T08:43:01;100167.09;;;18.31;68.50
33414;BME280;60055;41.884;12.534;2023-05-20T08:45:32;100173.06;;;18.35;68.80
33414;BME280;60055;41.884;12.534;2023-05-20T08:47:59;100164.94;;;18.48;68.93
33414;BME280;60055;41.884;12.534;2023-05-20T08:50:25;100149.31;;;18.54;67.14
33414;BME280;60055;41.884;12.534;2023-05-20T08:52:50;100149.78;;;18.59;66.88
33414;BME280;60055;41.884;12.534;2023-05-20T08:55:18;100128.91;;;18.64;66.67
33414;BME280;60055;41.884;12.534;2023-05-20T08:57:49;100135.09;;;18.76;66.39
33414;BME280;60055;41.884;12.534;2023-05-20T09:00:16;100135.09;;;18.87;65.65
33414;BME280;60055;41.884;12.534;2023-05-20T09:02:44;100133.75;;;18.93;65.61
33414;BME280;60055;41.884;12.534;2023-05-20T09:05:10;100128.16;;;19.07;64.63
33414;BME280;60055;41.884;12.534;2023-05-20T09:07:36;100122.69;;;19.19;65.10
33414;BME280;60055;41.884;12.534;2023-05-20T09:10:02;100131.66;;;19.18;64.20
33414;BME280;60055;41.884;12.534;2023-05-20T09:12:27;100131.19;;;19.13;63.96
33414;BME280;60055;41.884;12.534;2023-05-20T09:14:53;100128.63;;;19.12;64.06
33414;BME280;60055;41.884;12.534;2023-05-20T09:17:20;100126.31;;;19.18;64.22
33414;BME280;60055;41.884;12.534;2023-05-20T09:19:49;100105.59;;;19.31;63.93
33414;BME280;60055;41.884;12.534;2023-05-20T09:22:21;100094.88;;;19.31;62.95
33414;BME280;60055;41.884;12.534;2023-05-20T09:24:47;100107.78;;;19.26;62.29
33414;BME280;60055;41.884;12.534;2023-05-20T09:27:12;100095.84;;;19.30;61.82
33414;BME280;60055;41.884;12.534;2023-05-20T09:29:38;100086.34;;;19.37;62.16
33414;BME280;60055;41.884;12.534;2023-05-20T09:32:04;100095.75;;;19.43;62.66
33414;BME280;60055;41.884;12.534;2023-05-20T09:34:30;100098.38;;;19.54;63.65
33414;BME280;60055;41.884;12.534;2023-05-20T09:36:58;100097.53;;;19.54;62.73
33414;BME280;60055;41.884;12.534;2023-05-20T09:39:26;100102.25;;;19.61;63.44
33414;BME280;60055;41.884;12.534;2023-05-20T09:41:59;100092.38;;;19.62;65.06
33414;BME280;60055;41.884;12.534;2023-05-20T09:44:27;100103.59;;;19.67;66.65
33414;BME280;60055;41.884;12.534;2023-05-20T09:46:55;100106.72;;;19.72;66.36
33414;BME280;60055;41.884;12.534;2023-05-20T09:49:21;100104.16;;;19.70;67.65
33414;BME280;60055;41.884;12.534;2023-05-20T09:51:48;100102.47;;;19.69;68.19
33414;BME280;60055;41.884;12.534;2023-05-20T09:54:14;100103.31;;;19.70;68.46
33414;BME280;60055;41.884;12.534;2023-05-20T09:56:41;100101.53;;;19.59;68.32
33414;BME280;60055;41.884;12.534;2023-05-20T09:59:07;100098.13;;;19.57;69.17
33414;BME280;60055;41.884;12.534;2023-05-20T10:01:34;100104.94;;;19.61;68.81
33414;BME280;60055;41.884;12.534;2023-05-20T10:04:04;100101.03;;;19.65;67.80
33414;BME280;60055;41.884;12.534;2023-05-20T10:07:12;100110.25;;;19.72;67.52
33414;BME280;60055;41.884;12.534;2023-05-20T10:16:01;100123.13;;;19.78;67.07
33414;BME280;60055;41.884;12.534;2023-05-20T10:20:56;100130.22;;;19.68;66.96
33414;BME280;60055;41.884;12.534;2023-05-20T10:23:27;100123.91;;;19.69;66.86
33414;BME280;60055;41.884;12.534;2023-05-20T10:25:55;100118.06;;;19.64;66.17
33414;BME280;60055;41.884;12.534;2023-05-20T10:28:31;100109.50;;;19.70;66.46
33414;BME280;60055;41.884;12.534;2023-05-20T10:30:58;100098.44;;;19.64;66.79
33414;BME280;60055;41.884;12.534;2023-05-20T10:33:25;100098.72;;;19.61;67.51
33414;BME280;60055;41.884;12.534;2023-05-20T10:35:52;100093.94;;;19.64;67.71
33414;BME280;60055;41.884;12.534;2023-05-20T10:38:18;100096.25;;;19.69;67.35
33414;BME280;60055;41.884;12.534;2023-05-20T10:40:47;100094.81;;;19.65;67.49
33414;BME280;60055;41.884;12.534;2023-05-20T10:43:26;100078.47;;;19.68;67.21
33414;BME280;60055;41.884;12.534;2023-05-20T10:45:54;100093.94;;;19.64;67.57
33414;BME280;60055;41.884;12.534;2023-05-20T10:48:27;100090.38;;;19.75;66.83
33414;BME280;60055;41.884;12.534;2023-05-20T10:50:55;100082.34;;;19.75;67.27
33414;BME280;60055;41.884;12.534;2023-05-20T10:53:22;100085.75;;;19.77;67.77
33414;BME280;60055;41.884;12.534;2023-05-20T10:55:50;100082.94;;;19.78;67.80
33414;BME280;60055;41.884;12.534;2023-05-20T10:58:16;100087.59;;;19.76;67.71
33414;BME280;60055;41.884;12.534;2023-05-20T11:00:43;100081.09;;;19.79;67.69
33414;BME280;60055;41.884;12.534;2023-05-20T11:03:09;100099.38;;;19.74;68.06
33414;BME280;60055;41.884;12.534;2023-05-20T11:05:41;100117.16;;;19.75;68.00
33414;BME280;60055;41.884;12.534;2023-05-20T11:08:09;100124.16;;;19.66;68.51
33414;BME280;60055;41.884;12.534;2023-05-20T11:10:45;100127.47;;;19.59;69.53
33414;BME280;60055;41.884;12.534;2023-05-20T11:13:12;100123.75;;;19.71;70.06
33414;BME280;60055;41.884;12.534;2023-05-20T11:15:41;100133.31;;;19.84;69.90
33414;BME280;60055;41.884;12.534;2023-05-20T11:18:12;100146.78;;;19.94;69.79
33414;BME280;60055;41.884;12.534;2023-05-20T11:20:45;100153.81;;;20.06;70.45
33414;BME280;60055;41.884;12.534;2023-05-20T11:23:13;100162.84;;;20.05;68.85
33414;BME280;60055;41.884;12.534;2023-05-20T11:25:39;100163.34;;;19.99;68.59
33414;BME280;60055;41.884;12.534;2023-05-20T11:28:34;100144.13;;;20.15;69.25
33414;BME280;60055;41.884;12.534;2023-05-20T11:31:03;100145.84;;;20.16;67.62
33414;BME280;60055;41.884;12.534;2023-05-20T11:33:29;100133.56;;;20.13;67.67
33414;BME280;60055;41.884;12.534;2023-05-20T11:35:57;100144.47;;;20.21;69.86
33414;BME280;60055;41.884;12.534;2023-05-20T11:38:23;100159.69;;;20.32;69.11
33414;BME280;60055;41.884;12.534;2023-05-20T11:41:01;100171.53;;;20.29;66.01
33414;BME280;60055;41.884;12.534;2023-05-20T11:43:27;100158.72;;;20.33;65.79
33414;BME280;60055;41.884;12.534;2023-05-20T11:45:54;100170.41;;;20.32;64.10
33414;BME280;60055;41.884;12.534;2023-05-20T11:48:23;100166.63;;;20.34;64.41
33414;BME280;60055;41.884;12.534;2023-05-20T11:50:48;100179.84;;;20.47;63.83
33414;BME280;60055;41.884;12.534;2023-05-20T11:53:18;100168.97;;;20.49;60.75
33414;BME280;60055;41.884;12.534;2023-05-20T11:58:11;100197.59;;;20.48;62.27
33414;BME280;60055;41.884;12.534;2023-05-20T12:00:39;100194.69;;;20.51;59.96
33414;BME280;60055;41.884;12.534;2023-05-20T12:03:05;100191.22;;;20.60;60.87
33414;BME280;60055;41.884;12.534;2023-05-20T12:05:30;100185.97;;;20.59;60.31
33414;BME280;60055;41.884;12.534;2023-05-20T12:07:56;100189.50;;;20.59;58.90
33414;BME280;60055;41.884;12.534;2023-05-20T12:10:25;100194.75;;;20.61;59.11
33414;BME280;60055;41.884;12.534;2023-05-20T12:13:09;100197.56;;;20.59;58.59
33414;BME280;60055;41.884;12.534;2023-05-20T12:15:35;100204.25;;;20.65;59.39
33414;BME280;60055;41.884;12.534;2023-05-20T12:18:01;100203.50;;;20.63;58.66
33414;BME280;60055;41.884;12.534;2023-05-20T12:20:27;100211.81;;;20.60;58.36
33414;BME280;60055;41.884;12.534;2023-05-20T12:22:59;100210.00;;;20.60;58.36
33414;BME280;60055;41.884;12.534;2023-05-20T12:25:25;100222.56;;;20.60;58.71
33414;BME280;60055;41.884;12.534;2023-05-20T12:27:51;100237.19;;;20.56;58.72
33414;BME280;60055;41.884;12.534;2023-05-20T12:30:19;100238.31;;;20.53;58.88
33414;BME280;60055;41.884;12.534;2023-05-20T12:32:45;100246.69;;;20.60;59.03
33414;BME280;60055;41.884;12.534;2023-05-20T12:35:11;100259.44;;;20.47;59.86
33414;BME280;60055;41.884;12.534;2023-05-20T12:37:41;100254.94;;;20.47;60.17
33414;BME280;60055;41.884;12.534;2023-05-20T12:40:08;100263.09;;;20.46;60.56
33414;BME280;60055;41.884;12.534;2023-05-20T12:42:40;100263.97;;;20.46;60.60
33414;BME280;60055;41.884;12.534;2023-05-20T12:45:07;100269.81;;;20.51;60.62
33414;BME280;60055;41.884;12.534;2023-05-20T12:47:33;100276.25;;;20.49;61.29
33414;BME280;60055;41.884;12.534;2023-05-20T12:50:00;100266.53;;;20.48;61.20